sensor_id;sensor_type;location;lat;lon;timestamp;temperature;humidity
43991;DHT22;29654;50.784;20.604;2023-05-27T00:04:23;19.00;42.10
43991;DHT22;29654;50.784;20.604;2023-05-27T00:09:26;19.00;42.10
43991;DHT22;29654;50.784;20.604;2023-05-27T00:14:29;18.90;42.10
43991;DHT22;29654;50.784;20.604;2023-05-27T00:19:32;18.90;42.10
43991;DHT22;29654;50.784;20.604;2023-05-27T00:24:35;18.90;42.10
43991;DHT22;29654;50.784;20.604;2023-05-27T00:29:40;18.80;42.10
43991;DHT22;29654;50.784;20.604;2023-05-27T00:34:44;18.80;42.10
43991;DHT22;29654;50.784;20.604;2023-05-27T00:39:47;18.70;42.00
43991;DHT22;29654;50.784;20.604;2023-05-27T00:44:50;18.70;42.10
43991;DHT22;29654;50.784;20.604;2023-05-27T00:49:54;18.60;42.10
43991;DHT22;29654;50.784;20.604;2023-05-27T00:54:56;18.60;42.80
43991;DHT22;29654;50.784;20.604;2023-05-27T01:00:00;18.60;42.20
43991;DHT22;29654;50.784;20.604;2023-05-27T01:05:05;18.50;42.20
43991;DHT22;29654;50.784;20.604;2023-05-27T01:10:13;18.50;42.30
43991;DHT22;29654;50.784;20.604;2023-05-27T01:15:18;18.50;42.30
43991;DHT22;29654;50.784;20.604;2023-05-27T01:20:23;18.40;42.30
43991;DHT22;29654;50.784;20.604;2023-05-27T01:25:28;18.30;42.30
43991;DHT22;29654;50.784;20.604;2023-05-27T01:30:30;18.30;42.30
43991;DHT22;29654;50.784;20.604;2023-05-27T01:35:40;18.20;42.40
43991;DHT22;29654;50.784;20.604;2023-05-27T01:40:49;18.10;42.50
43991;DHT22;29654;50.784;20.604;2023-05-27T01:45:52;18.00;42.50
43991;DHT22;29654;50.784;20.604;2023-05-27T01:50:55;17.90;42.50
43991;DHT22;29654;50.784;20.604;2023-05-27T01:55:59;17.80;42.60
43991;DHT22;29654;50.784;20.604;2023-05-27T02:01:02;17.80;42.70
43991;DHT22;29654;50.784;20.604;2023-05-27T02:06:06;17.60;42.80
43991;DHT22;29654;50.784;20.604;2023-05-27T02:11:10;17.50;43.00
43991;DHT22;29654;50.784;20.604;2023-05-27T02:16:13;17.40;43.20
43991;DHT22;29654;50.784;20.604;2023-05-27T02:21:16;17.30;43.30
43991;DHT22;29654;50.784;20.604;2023-05-27T02:26:20;17.20;43.40
43991;DHT22;29654;50.784;20.604;2023-05-27T02:31:24;17.10;43.50
43991;DHT22;29654;50.784;20.604;2023-05-27T02:36:27;17.00;43.60
43991;DHT22;29654;50.784;20.604;2023-05-27T02:41:31;16.90;43.80
43991;DHT22;29654;50.784;20.604;2023-05-27T02:46:34;16.90;43.90
43991;DHT22;29654;50.784;20.604;2023-05-27T02:51:36;16.90;44.00
43991;DHT22;29654;50.784;20.604;2023-05-27T02:56:40;16.80;44.00
43991;DHT22;29654;50.784;20.604;2023-05-27T03:01:43;16.80;44.10
43991;DHT22;29654;50.784;20.604;2023-05-27T03:06:46;16.80;44.20
43991;DHT22;29654;50.784;20.604;2023-05-27T03:11:49;16.90;44.50
43991;DHT22;29654;50.784;20.604;2023-05-27T03:16:54;17.00;44.80
43991;DHT22;29654;50.784;20.604;2023-05-27T03:21:57;17.30;44.90
43991;DHT22;29654;50.784;20.604;2023-05-27T03:27:03;17.50;45.00
43991;DHT22;29654;50.784;20.604;2023-05-27T03:32:09;17.90;45.10
43991;DHT22;29654;50.784;20.604;2023-05-27T03:37:12;18.30;45.10
43991;DHT22;29654;50.784;20.604;2023-05-27T03:42:25;18.70;45.00
43991;DHT22;29654;50.784;20.604;2023-05-27T03:47:27;19.20;45.00
43991;DHT22;29654;50.784;20.604;2023-05-27T03:52:30;19.70;44.80
43991;DHT22;29654;50.784;20.604;2023-05-27T03:57:37;20.30;44.60
43991;DHT22;29654;50.784;20.604;2023-05-27T04:02:41;20.90;43.60
43991;DHT22;29654;50.784;20.604;2023-05-27T04:07:44;21.30;43.10
43991;DHT22;29654;50.784;20.604;2023-05-27T04:12:48;21.80;42.90
43991;DHT22;29654;50.784;20.604;2023-05-27T04:17:50;22.30;42.30
43991;DHT22;29654;50.784;20.604;2023-05-27T04:22:53;22.70;41.90
43991;DHT22;29654;50.784;20.604;2023-05-27T04:27:58;23.10;41.40
43991;DHT22;29654;50.784;20.604;2023-05-27T04:33:04;23.30;40.80
43991;DHT22;29654;50.784;20.604;2023-05-27T04:38:06;23.60;40.50
43991;DHT22;29654;50.784;20.604;2023-05-27T04:43:23;23.80;40.40
43991;DHT22;29654;50.784;20.604;2023-05-27T04:48:29;24.20;40.10
43991;DHT22;29654;50.784;20.604;2023-05-27T04:53:31;24.50;39.50
43991;DHT22;29654;50.784;20.604;2023-05-27T04:58:37;24.70;38.60
43991;DHT22;29654;50.784;20.604;2023-05-27T05:03:40;24.70;37.40
43991;DHT22;29654;50.784;20.604;2023-05-27T05:08:53;24.40;37.00
43991;DHT22;29654;50.784;20.604;2023-05-27T05:13:57;24.00;36.90
43991;DHT22;29654;50.784;20.604;2023-05-27T05:19:00;23.60;37.00
43991;DHT22;29654;50.784;20.604;2023-05-27T05:24:07;23.20;37.10
43991;DHT22;29654;50.784;20.604;2023-05-27T05:29:11;22.80;37.20
43991;DHT22;29654;50.784;20.604;2023-05-27T05:34:15;22.40;37.40
43991;DHT22;29654;50.784;20.604;2023-05-27T05:39:18;22.00;38.10
43991;DHT22;29654;50.784;20.604;2023-05-27T05:44:28;21.90;38.70
43991;DHT22;29654;50.784;20.604;2023-05-27T05:49:30;21.80;38.80
43991;DHT22;29654;50.784;20.604;2023-05-27T05:54:33;21.80;39.00
43991;DHT22;29654;50.784;20.604;2023-05-27T05:59:37;21.80;38.80
43991;DHT22;29654;50.784;20.604;2023-05-27T06:04:40;21.70;38.90
43991;DHT22;29654;50.784;20.604;2023-05-27T06:09:43;21.60;39.20
43991;DHT22;29654;50.784;20.604;2023-05-27T06:14:54;21.60;39.30
43991;DHT22;29654;50.784;20.604;2023-05-27T06:20:06;21.50;39.30
43991;DHT22;29654;50.784;20.604;2023-05-27T06:25:09;21.50;39.60
43991;DHT22;29654;50.784;20.604;2023-05-27T06:30:24;21.50;39.70
43991;DHT22;29654;50.784;20.604;2023-05-27T06:35:28;21.50;39.60
43991;DHT22;29654;50.784;20.604;2023-05-27T06:40:32;21.60;39.70
43991;DHT22;29654;50.784;20.604;2023-05-27T06:45:36;21.70;39.60
43991;DHT22;29654;50.784;20.604;2023-05-27T06:50:55;21.80;39.50
43991;DHT22;29654;50.784;20.604;2023-05-27T06:55:57;21.90;39.60
43991;DHT22;29654;50.784;20.604;2023-05-27T07:01:24;22.00;39.10
43991;DHT22;29654;50.784;20.604;2023-05-27T07:06:32;22.10;38.70
43991;DHT22;29654;50.784;20.604;2023-05-27T07:11:35;22.10;38.70
43991;DHT22;29654;50.784;20.604;2023-05-27T07:16:43;22.20;38.50
43991;DHT22;29654;50.784;20.604;2023-05-27T07:21:47;22.40;38.40
43991;DHT22;29654;50.784;20.604;2023-05-27T07:26:54;22.50;38.70
43991;DHT22;29654;50.784;20.604;2023-05-27T07:32:00;22.70;38.80
43991;DHT22;29654;50.784;20.604;2023-05-27T07:37:08;22.90;38.70
43991;DHT22;29654;50.784;20.604;2023-05-27T07:42:10;23.10;38.50
43991;DHT22;29654;50.784;20.604;2023-05-27T07:47:14;23.20;38.30
43991;DHT22;29654;50.784;20.604;2023-05-27T07:52:17;23.40;37.70
43991;DHT22;29654;50.784;20.604;2023-05-27T07:57:22;23.40;37.70
43991;DHT22;29654;50.784;20.604;2023-05-27T08:02:26;23.50;37.60
43991;DHT22;29654;50.784;20.604;2023-05-27T08:07:29;23.60;38.10
43991;DHT22;29654;50.784;20.604;2023-05-27T08:12:45;23.70;37.30
43991;DHT22;29654;50.784;20.604;2023-05-27T08:18:00;23.80;36.90
43991;DHT22;29654;50.784;20.604;2023-05-27T08:23:39;23.90;36.40
43991;DHT22;29654;50.784;20.604;2023-05-27T08:29:06;23.90;36.00
43991;DHT22;29654;50.784;20.604;2023-05-27T08:34:17;24.00;35.90
43991;DHT22;29654;50.784;20.604;2023-05-27T08:39:20;24.00;35.00
43991;DHT22;29654;50.784;20.604;2023-05-27T08:44:32;23.90;34.80
43991;DHT22;29654;50.784;20.604;2023-05-27T08:49:42;23.90;34.70
43991;DHT22;29654;50.784;20.604;2023-05-27T08:54:45;23.90;33.70
43991;DHT22;29654;50.784;20.604;2023-05-27T08:59:48;23.90;33.90
43991;DHT22;29654;50.784;20.604;2023-05-27T09:04:55;23.90;33.80
43991;DHT22;29654;50.784;20.604;2023-05-27T09:09:58;23.90;33.70
43991;DHT22;29654;50.784;20.604;2023-05-27T09:15:00;23.90;33.60
43991;DHT22;29654;50.784;20.604;2023-05-27T09:20:06;23.90;33.30
43991;DHT22;29654;50.784;20.604;2023-05-27T09:25:09;23.90;33.00
43991;DHT22;29654;50.784;20.604;2023-05-27T09:30:13;24.00;33.00
43991;DHT22;29654;50.784;20.604;2023-05-27T09:35:17;24.10;32.90
43991;DHT22;29654;50.784;20.604;2023-05-27T09:40:20;24.20;32.50
43991;DHT22;29654;50.784;20.604;2023-05-27T09:45:23;24.20;32.50
43991;DHT22;29654;50.784;20.604;2023-05-27T09:50:28;24.20;32.80
43991;DHT22;29654;50.784;20.604;2023-05-27T09:55:30;24.30;32.60
43991;DHT22;29654;50.784;20.604;2023-05-27T10:00:33;24.30;32.80
43991;DHT22;29654;50.784;20.604;2023-05-27T10:05:37;24.50;32.50
43991;DHT22;29654;50.784;20.604;2023-05-27T10:10:41;24.50;32.40
43991;DHT22;29654;50.784;20.604;2023-05-27T10:15:47;24.60;32.30
43991;DHT22;29654;50.784;20.604;2023-05-27T10:20:52;24.60;32.10
43991;DHT22;29654;50.784;20.604;2023-05-27T10:25:56;24.60;32.20
43991;DHT22;29654;50.784;20.604;2023-05-27T10:31:06;24.60;32.70
43991;DHT22;29654;50.784;20.604;2023-05-27T10:36:12;24.60;31.90
43991;DHT22;29654;50.784;20.604;2023-05-27T10:41:15;24.60;32.50
43991;DHT22;29654;50.784;20.604;2023-05-27T10:46:19;24.60;32.60
43991;DHT22;29654;50.784;20.604;2023-05-27T10:51:32;24.60;32.80
43991;DHT22;29654;50.784;20.604;2023-05-27T10:56:35;24.70;32.60
43991;DHT22;29654;50.784;20.604;2023-05-27T11:01:38;24.80;33.00
43991;DHT22;29654;50.784;20.604;2023-05-27T11:06:42;24.90;33.40
43991;DHT22;29654;50.784;20.604;2023-05-27T11:11:44;25.00;33.10
43991;DHT22;29654;50.784;20.604;2023-05-27T11:16:47;25.00;33.10
43991;DHT22;29654;50.784;20.604;2023-05-27T11:21:53;25.00;33.20
43991;DHT22;29654;50.784;20.604;2023-05-27T11:26:57;25.00;33.60
43991;DHT22;29654;50.784;20.604;2023-05-27T11:31:59;25.10;33.70
43991;DHT22;29654;50.784;20.604;2023-05-27T11:37:04;25.30;33.90
43991;DHT22;29654;50.784;20.604;2023-05-27T11:42:08;25.40;33.20
43991;DHT22;29654;50.784;20.604;2023-05-27T11:47:11;25.40;33.30
43991;DHT22;29654;50.784;20.604;2023-05-27T11:52:15;25.40;33.30
43991;DHT22;29654;50.784;20.604;2023-05-27T11:57:17;25.40;33.60
43991;DHT22;29654;50.784;20.604;2023-05-27T12:02:20;25.40;33.70
43991;DHT22;29654;50.784;20.604;2023-05-27T12:07:24;25.50;33.60
43991;DHT22;29654;50.784;20.604;2023-05-27T12:12:27;25.60;33.70
43991;DHT22;29654;50.784;20.604;2023-05-27T12:17:34;25.70;33.60
43991;DHT22;29654;50.784;20.604;2023-05-27T12:22:38;25.60;33.40
43991;DHT22;29654;50.784;20.604;2023-05-27T12:27:41;25.60;33.50
43991;DHT22;29654;50.784;20.604;2023-05-27T12:32:45;25.70;33.50
43991;DHT22;29654;50.784;20.604;2023-05-27T12:37:49;25.60;33.60
43991;DHT22;29654;50.784;20.604;2023-05-27T12:42:51;25.60;33.50
43991;DHT22;29654;50.784;20.604;2023-05-27T12:47:54;25.50;33.50
43991;DHT22;29654;50.784;20.604;2023-05-27T12:52:58;25.50;33.70
43991;DHT22;29654;50.784;20.604;2023-05-27T12:58:01;25.50;33.70
43991;DHT22;29654;50.784;20.604;2023-05-27T13:03:03;25.50;33.80
43991;DHT22;29654;50.784;20.604;2023-05-27T13:08:07;25.50;33.80
43991;DHT22;29654;50.784;20.604;2023-05-27T13:13:10;25.50;33.90
43991;DHT22;29654;50.784;20.604;2023-05-27T13:18:13;25.50;33.70
43991;DHT22;29654;50.784;20.604;2023-05-27T13:23:17;25.60;33.40
43991;DHT22;29654;50.784;20.604;2023-05-27T13:28:19;25.60;33.40
43991;DHT22;29654;50.784;20.604;2023-05-27T13:33:22;25.50;33.40
43991;DHT22;29654;50.784;20.604;2023-05-27T13:38:26;25.50;33.40
43991;DHT22;29654;50.784;20.604;2023-05-27T13:43:28;25.50;33.30
43991;DHT22;29654;50.784;20.604;2023-05-27T13:48:31;25.50;33.30
43991;DHT22;29654;50.784;20.604;2023-05-27T13:53:35;25.50;33.30
43991;DHT22;29654;50.784;20.604;2023-05-27T13:58:37;25.60;33.10
43991;DHT22;29654;50.784;20.604;2023-05-27T14:03:40;25.60;33.10
43991;DHT22;29654;50.784;20.604;2023-05-27T14:08:45;25.60;33.00
43991;DHT22;29654;50.784;20.604;2023-05-27T14:13:47;25.60;33.10
43991;DHT22;29654;50.784;20.604;2023-05-27T14:18:50;25.60;33.00
43991;DHT22;29654;50.784;20.604;2023-05-27T14:23:54;25.50;32.90
43991;DHT22;29654;50.784;20.604;2023-05-27T14:28:57;25.50;32.90
43991;DHT22;29654;50.784;20.604;2023-05-27T14:34:00;25.50;33.10
43991;DHT22;29654;50.784;20.604;2023-05-27T14:39:04;25.50;33.20
43991;DHT22;29654;50.784;20.604;2023-05-27T14:44:07;25.50;33.00
43991;DHT22;29654;50.784;20.604;2023-05-27T14:49:10;25.60;32.90
43991;DHT22;29654;50.784;20.604;2023-05-27T14:54:14;25.60;32.90
43991;DHT22;29654;50.784;20.604;2023-05-27T14:59:17;25.70;32.70
43991;DHT22;29654;50.784;20.604;2023-05-27T15:04:22;25.60;32.50
43991;DHT22;29654;50.784;20.604;2023-05-27T15:09:26;25.70;32.60
43991;DHT22;29654;50.784;20.604;2023-05-27T15:14:28;25.70;32.60
43991;DHT22;29654;50.784;20.604;2023-05-27T15:19:31;25.70;32.10
43991;DHT22;29654;50.784;20.604;2023-05-27T15:24:35;25.60;32.30
43991;DHT22;29654;50.784;20.604;2023-05-27T15:29:38;25.60;32.20
43991;DHT22;29654;50.784;20.604;2023-05-27T15:34:40;25.40;32.30
43991;DHT22;29654;50.784;20.604;2023-05-27T15:39:45;25.40;32.40
43991;DHT22;29654;50.784;20.604;2023-05-27T15:44:47;25.40;31.80
43991;DHT22;29654;50.784;20.604;2023-05-27T15:49:50;25.20;32.10
43991;DHT22;29654;50.784;20.604;2023-05-27T15:54:54;25.20;32.40
43991;DHT22;29654;50.784;20.604;2023-05-27T15:59:57;25.20;32.40
43991;DHT22;29654;50.784;20.604;2023-05-27T16:04:59;25.20;32.40
43991;DHT22;29654;50.784;20.604;2023-05-27T16:10:05;25.10;32.40
43991;DHT22;29654;50.784;20.604;2023-05-27T16:15:09;25.10;32.30
43991;DHT22;29654;50.784;20.604;2023-05-27T16:20:13;25.00;32.40
43991;DHT22;29654;50.784;20.604;2023-05-27T16:25:17;25.00;32.40
43991;DHT22;29654;50.784;20.604;2023-05-27T16:30:20;25.00;32.50
43991;DHT22;29654;50.784;20.604;2023-05-27T16:35:23;25.00;32.50
43991;DHT22;29654;50.784;20.604;2023-05-27T16:40:27;24.90;32.20
43991;DHT22;29654;50.784;20.604;2023-05-27T16:45:30;24.90;32.10
43991;DHT22;29654;50.784;20.604;2023-05-27T16:50:33;24.80;32.10
43991;DHT22;29654;50.784;20.604;2023-05-27T16:55:37;24.70;32.20
43991;DHT22;29654;50.784;20.604;2023-05-27T17:00:41;24.70;32.20
43991;DHT22;29654;50.784;20.604;2023-05-27T17:05:44;24.70;32.10
43991;DHT22;29654;50.784;20.604;2023-05-27T17:10:48;24.60;32.10
43991;DHT22;29654;50.784;20.604;2023-05-27T17:15:51;24.50;32.20
43991;DHT22;29654;50.784;20.604;2023-05-27T17:20:54;24.50;32.00
43991;DHT22;29654;50.784;20.604;2023-05-27T17:25:58;24.30;31.90
43991;DHT22;29654;50.784;20.604;2023-05-27T17:31:02;24.30;31.70
43991;DHT22;29654;50.784;20.604;2023-05-27T17:36:05;24.20;31.80
43991;DHT22;29654;50.784;20.604;2023-05-27T17:41:09;24.10;31.70
43991;DHT22;29654;50.784;20.604;2023-05-27T17:46:12;24.00;31.30
43991;DHT22;29654;50.784;20.604;2023-05-27T17:51:15;23.90;31.20
43991;DHT22;29654;50.784;20.604;2023-05-27T17:56:19;23.70;31.10
43991;DHT22;29654;50.784;20.604;2023-05-27T18:01:21;23.60;30.90
43991;DHT22;29654;50.784;20.604;2023-05-27T18:06:24;23.50;30.90
43991;DHT22;29654;50.784;20.604;2023-05-27T18:11:28;23.40;31.50
43991;DHT22;29654;50.784;20.604;2023-05-27T18:16:31;23.20;30.80
43991;DHT22;29654;50.784;20.604;2023-05-27T18:21:33;23.10;30.90
43991;DHT22;29654;50.784;20.604;2023-05-27T18:26:38;22.90;30.90
43991;DHT22;29654;50.784;20.604;2023-05-27T18:31:40;22.80;30.90
43991;DHT22;29654;50.784;20.604;2023-05-27T18:36:43;22.70;30.90
43991;DHT22;29654;50.784;20.604;2023-05-27T18:41:47;22.50;30.90
43991;DHT22;29654;50.784;20.604;2023-05-27T18:46:50;22.40;30.80
43991;DHT22;29654;50.784;20.604;2023-05-27T18:51:54;22.20;30.90
43991;DHT22;29654;50.784;20.604;2023-05-27T18:56:58;22.00;30.90
43991;DHT22;29654;50.784;20.604;2023-05-27T19:02:00;21.90;31.00
43991;DHT22;29654;50.784;20.604;2023-05-27T19:07:03;21.70;31.20
43991;DHT22;29654;50.784;20.604;2023-05-27T19:12:07;21.60;31.40
43991;DHT22;29654;50.784;20.604;2023-05-27T19:17:10;21.40;31.50
43991;DHT22;29654;50.784;20.604;2023-05-27T19:22:13;21.30;31.70
43991;DHT22;29654;50.784;20.604;2023-05-27T19:27:21;21.10;31.90
43991;DHT22;29654;50.784;20.604;2023-05-27T19:32:23;20.90;32.10
43991;DHT22;29654;50.784;20.604;2023-05-27T19:37:26;20.80;32.40
43991;DHT22;29654;50.784;20.604;2023-05-27T19:42:30;20.60;32.60
43991;DHT22;29654;50.784;20.604;2023-05-27T19:47:33;20.40;33.20
43991;DHT22;29654;50.784;20.604;2023-05-27T19:52:35;20.20;33.40
43991;DHT22;29654;50.784;20.604;2023-05-27T19:57:39;20.00;33.70
43991;DHT22;29654;50.784;20.604;2023-05-27T20:02:42;19.80;34.20
43991;DHT22;29654;50.784;20.604;2023-05-27T20:07:45;19.60;34.60
43991;DHT22;29654;50.784;20.604;2023-05-27T20:12:49;19.40;34.90
43991;DHT22;29654;50.784;20.604;2023-05-27T20:17:52;19.20;35.30
43991;DHT22;29654;50.784;20.604;2023-05-27T20:22:54;18.90;35.60
43991;DHT22;29654;50.784;20.604;2023-05-27T20:27:58;18.70;35.80
43991;DHT22;29654;50.784;20.604;2023-05-27T20:33:01;18.50;36.20
43991;DHT22;29654;50.784;20.604;2023-05-27T20:38:04;18.30;36.20
43991;DHT22;29654;50.784;20.604;2023-05-27T20:43:08;18.10;36.50
43991;DHT22;29654;50.784;20.604;2023-05-27T20:48:10;17.90;36.80
43991;DHT22;29654;50.784;20.604;2023-05-27T20:53:14;17.70;37.00
43991;DHT22;29654;50.784;20.604;2023-05-27T20:58:17;17.50;37.20
43991;DHT22;29654;50.784;20.604;2023-05-27T21:03:20;17.40;37.60
43991;DHT22;29654;50.784;20.604;2023-05-27T21:08:23;17.20;37.60
43991;DHT22;29654;50.784;20.604;2023-05-27T21:13:27;17.10;37.90
43991;DHT22;29654;50.784;20.604;2023-05-27T21:18:30;16.90;38.20
43991;DHT22;29654;50.784;20.604;2023-05-27T21:23:34;16.80;38.30
43991;DHT22;29654;50.784;20.604;2023-05-27T21:28:38;16.70;38.50
43991;DHT22;29654;50.784;20.604;2023-05-27T21:33:41;16.60;38.70
43991;DHT22;29654;50.784;20.604;2023-05-27T21:38:43;16.50;38.80
43991;DHT22;29654;50.784;20.604;2023-05-27T21:43:48;16.40;38.80
43991;DHT22;29654;50.784;20.604;2023-05-27T21:48:51;16.40;39.10
43991;DHT22;29654;50.784;20.604;2023-05-27T21:53:53;16.20;39.00
43991;DHT22;29654;50.784;20.604;2023-05-27T21:58:59;16.20;39.30
43991;DHT22;29654;50.784;20.604;2023-05-27T22:04:02;16.10;39.60
43991;DHT22;29654;50.784;20.604;2023-05-27T22:09:04;16.00;39.60
43991;DHT22;29654;50.784;20.604;2023-05-27T22:14:10;15.90;39.80
43991;DHT22;29654;50.784;20.604;2023-05-27T22:19:13;15.80;40.00
43991;DHT22;29654;50.784;20.604;2023-05-27T22:24:15;15.80;40.10
43991;DHT22;29654;50.784;20.604;2023-05-27T22:29:19;15.70;40.20
43991;DHT22;29654;50.784;20.604;2023-05-27T22:34:22;15.60;40.40
43991;DHT22;29654;50.784;20.604;2023-05-27T22:39:24;15.50;40.40
43991;DHT22;29654;50.784;20.604;2023-05-27T22:44:29;15.40;40.50
43991;DHT22;29654;50.784;20.604;2023-05-27T22:49:31;15.30;40.70
43991;DHT22;29654;50.784;20.604;2023-05-27T22:54:34;15.30;40.70
43991;DHT22;29654;50.784;20.604;2023-05-27T22:59:38;15.20;40.80
43991;DHT22;29654;50.784;20.604;2023-05-27T23:04:40;15.00;41.00
43991;DHT22;29654;50.784;20.604;2023-05-27T23:09:43;15.00;41.00
43991;DHT22;29654;50.784;20.604;2023-05-27T23:14:47;14.90;41.20
43991;DHT22;29654;50.784;20.604;2023-05-27T23:19:50;14.80;41.40
43991;DHT22;29654;50.784;20.604;2023-05-27T23:24:52;14.70;41.40
43991;DHT22;29654;50.784;20.604;2023-05-27T23:29:56;14.70;41.50
43991;DHT22;29654;50.784;20.604;2023-05-27T23:34:59;14.60;41.70
43991;DHT22;29654;50.784;20.604;2023-05-27T23:40:01;14.50;41.70
43991;DHT22;29654;50.784;20.604;2023-05-27T23:45:06;14.40;41.80
43991;DHT22;29654;50.784;20.604;2023-05-27T23:50:10;14.40;42.10
43991;DHT22;29654;50.784;20.604;2023-05-27T23:55:13;14.30;41.90
